Terminal Aerodrome Forecast
Issued by NWS

Home | Current Version | Previous Version | Graphics & Text | Print | Product List | Glossary Off
Versions: 1 2 3 4 5 6 7 8 9 10 11 12 13 14 15 16

000
FTUS45 KGGW 250520
TAFGDV
TAF
KGDV 250520Z 2506/2606 06011KT P6SM BKN011
     FM251800 04012KT P6SM BKN022
     FM252000 04011KT P6SM BKN035
     FM260300 06007KT P6SM BKN060=

USA.gov is the U.S. government's official web portal to all federal, state and local government web resources and services.